Terminal Aerodrome Forecast
Issued by NWS

Current Version | Previous Version | Graphics & Text | Print | Product List | Glossary On
Versions: 1 2 3 4 5 6 7 8 9 10 11 12 13 14 15 16 17 18 19 20 21 22 23 24 25 26 27 28
817
FTUS41 KILN 280859 AAB
TAFLUK
TAF AMD
KLUK 280859Z 2809/2906 17007KT 5SM -SHRA BR VCTS BKN035CB BKN150
      TEMPO 2809/2813 2SM -TSRA BR OVC028CB
     FM281600 22004KT P6SM VCTS BKN040CB BKN150
     FM290200 00000KT 5SM BR BKN040 BKN150=

USA.gov is the U.S. government's official web portal to all federal, state and local government web resources and services.